Time;durP1;ratioP1;P1;durP2;ratioP2;P2;SDS_P1;SDS_P2;PMS_P1;PMS_P2;Temp;Humidity;BMP_temperature;BMP_pressure;BME280_temperature;BME280_humidity;BME280_pressure;Samples;Min_cycle;Max_cycle;Signal;HPM_P1;HPM_P2
2022/01/08 00:02:21;;;;;;;11.48;6.68;;;1.40;99.90;;;;;;5065370;28;20040;-68
2022/01/08 00:04:47;;;;;;;13.68;6.30;;;1.40;99.90;;;;;;5083106;28;20050;-68
2022/01/08 00:07:13;;;;;;;12.98;6.13;;;1.40;99.90;;;;;;5082395;28;20028;-68
2022/01/08 00:09:38;;;;;;;13.50;4.85;;;1.40;99.90;;;;;;5069201;28;20051;-68
2022/01/08 00:12:04;;;;;;;9.68;5.32;;;1.40;99.90;;;;;;5080260;28;20118;-69
2022/01/08 00:14:30;;;;;;;10.43;5.35;;;1.40;99.90;;;;;;5079630;28;20093;-68
2022/01/08 00:16:58;;;;;;;15.65;4.40;;;1.40;99.90;;;;;;5069359;28;20044;-68
2022/01/08 00:19:24;;;;;;;10.02;5.07;;;1.50;99.90;;;;;;5051255;28;20434;-69
2022/01/08 00:21:49;;;;;;;11.70;4.50;;;1.40;99.90;;;;;;5085000;28;20047;-68
2022/01/08 00:24:15;;;;;;;9.73;4.28;;;1.40;99.90;;;;;;5069593;28;20393;-68
2022/01/08 00:26:41;;;;;;;9.70;4.32;;;1.40;99.90;;;;;;5064073;28;20058;-68
2022/01/08 00:29:07;;;;;;;12.65;5.22;;;1.30;99.90;;;;;;5081635;28;20050;-69
2022/01/08 00:31:33;;;;;;;11.45;4.35;;;1.30;99.90;;;;;;5068022;28;20059;-68
2022/01/08 00:33:59;;;;;;;12.77;5.05;;;1.30;99.90;;;;;;5069362;28;20071;-68
2022/01/08 00:36:24;;;;;;;12.02;4.95;;;1.30;99.90;;;;;;5086492;28;20040;-68
2022/01/08 00:38:50;;;;;;;8.30;4.38;;;1.30;99.90;;;;;;5085383;28;20334;-69
2022/01/08 00:41:16;;;;;;;7.53;4.70;;;1.20;99.90;;;;;;5069919;28;20040;-69
2022/01/08 00:43:41;;;;;;;8.25;5.40;;;1.30;99.90;;;;;;5084839;28;20473;-70
2022/01/08 00:46:07;;;;;;;11.80;5.57;;;1.30;99.90;;;;;;5086412;28;20058;-68
2022/01/08 00:48:33;;;;;;;8.85;4.65;;;1.30;99.90;;;;;;5085442;28;20684;-68
2022/01/08 00:50:59;;;;;;;7.88;5.32;;;1.30;99.90;;;;;;5054162;28;20039;-68
2022/01/08 00:53:25;;;;;;;9.30;5.07;;;1.40;99.90;;;;;;5081122;28;20041;-68
2022/01/08 00:55:51;;;;;;;17.40;7.32;;;1.30;99.90;;;;;;5085802;28;20166;-68
2022/01/08 00:58:16;;;;;;;9.82;4.38;;;1.30;99.90;;;;;;5079258;28;20099;-68
2022/01/08 01:00:42;;;;;;;10.27;5.20;;;1.30;99.90;;;;;;5082590;28;20040;-68
2022/01/08 01:03:08;;;;;;;12.57;5.32;;;1.30;99.90;;;;;;5087957;28;20047;-69
2022/01/08 01:05:35;;;;;;;7.95;5.10;;;1.20;99.90;;;;;;5067352;28;20102;-68
2022/01/08 01:08:00;;;;;;;11.13;5.10;;;1.20;99.90;;;;;;5084030;28;20028;-68
2022/01/08 01:10:26;;;;;;;9.68;4.57;;;1.20;99.90;;;;;;5083651;28;20032;-68
2022/01/08 01:12:52;;;;;;;11.82;4.20;;;1.20;99.90;;;;;;5087727;28;20123;-69
2022/01/08 01:15:18;;;;;;;12.18;4.18;;;1.20;99.90;;;;;;5066014;28;20196;-68
2022/01/08 01:17:45;;;;;;;8.13;4.20;;;1.20;99.90;;;;;;5082600;28;20036;-69
2022/01/08 01:20:13;;;;;;;9.07;4.30;;;1.20;99.90;;;;;;5069911;28;20058;-68
2022/01/08 01:22:57;;;;;;;8.77;4.55;;;1.20;99.90;;;;;;5081529;28;20032;-68
2022/01/08 01:26:00;;;;;;;8.73;3.72;;;1.20;99.90;;;;;;5078894;28;20618;-69
2022/01/08 01:47:06;;;;;;;12.38;5.63;;;1.40;99.90;;;;;;5078495;28;20375;-68
2022/01/08 01:49:36;;;;;;;12.20;5.57;;;1.40;99.90;;;;;;5083518;28;20123;-68
2022/01/08 01:52:04;;;;;;;8.75;5.10;;;1.40;99.90;;;;;;5085741;28;20048;-68
2022/01/08 01:54:31;;;;;;;13.52;6.07;;;1.50;99.90;;;;;;5063229;28;20093;-68
2022/01/08 01:56:59;;;;;;;12.65;6.63;;;1.50;99.90;;;;;;5067303;28;20091;-69
2022/01/08 01:59:26;;;;;;;12.63;5.43;;;1.50;99.90;;;;;;5085732;28;20032;-68
2022/01/08 02:01:52;;;;;;;13.02;6.35;;;1.50;99.90;;;;;;5086039;28;20515;-68
2022/01/08 02:04:18;;;;;;;11.00;7.07;;;1.50;99.90;;;;;;5085435;28;20075;-68
2022/01/08 02:06:44;;;;;;;14.32;8.45;;;1.60;99.90;;;;;;5067119;28;20033;-68
2022/01/08 02:09:10;;;;;;;16.65;8.30;;;1.60;99.90;;;;;;5084828;28;20113;-69
2022/01/08 02:12:02;;;;;;;13.45;7.40;;;1.60;99.90;;;;;;5065833;28;20074;-68
2022/01/08 02:14:30;;;;;;;14.50;8.18;;;1.70;99.90;;;;;;5059449;28;20108;-68
2022/01/08 02:16:56;;;;;;;13.57;8.45;;;1.70;99.90;;;;;;5081932;28;20052;-68
2022/01/08 02:19:22;;;;;;;10.88;7.40;;;1.70;99.90;;;;;;5086134;28;20047;-68
2022/01/08 02:21:54;;;;;;;14.93;8.10;;;1.70;99.90;;;;;;5084588;28;20032;-69
2022/01/08 02:24:21;;;;;;;17.17;9.43;;;1.70;99.90;;;;;;5085142;28;20376;-68
2022/01/08 02:26:47;;;;;;;16.55;9.43;;;1.60;99.90;;;;;;5081704;28;20452;-68
2022/01/08 02:29:14;;;;;;;16.00;8.40;;;2.10;99.90;;;;;;5085740;28;20055;-68
2022/01/08 02:31:40;;;;;;;18.70;8.93;;;1.50;99.90;;;;;;5089168;28;20563;-68
2022/01/08 02:34:07;;;;;;;18.45;9.38;;;1.40;99.90;;;;;;5083989;28;20129;-68
2022/01/08 02:36:34;;;;;;;18.90;10.68;;;1.40;99.90;;;;;;5089586;28;20044;-68
2022/01/08 02:39:00;;;;;;;16.75;9.70;;;1.40;99.90;;;;;;5081393;28;20036;-68
2022/01/08 02:41:27;;;;;;;22.02;11.23;;;1.40;99.90;;;;;;5087114;28;20040;-68
2022/01/08 02:43:53;;;;;;;15.02;9.88;;;1.30;99.90;;;;;;5090244;28;20044;-68
2022/01/08 02:46:20;;;;;;;19.98;10.10;;;1.30;99.90;;;;;;5089072;28;20044;-68
2022/01/08 02:48:46;;;;;;;21.15;10.02;;;1.30;99.90;;;;;;5081928;28;20040;-69
2022/01/08 02:51:12;;;;;;;17.58;10.05;;;1.40;99.90;;;;;;5088375;28;20035;-68
2022/01/08 02:53:38;;;;;;;15.77;9.80;;;1.20;99.90;;;;;;5084609;28;20040;-68
2022/01/08 02:56:04;;;;;;;19.45;12.07;;;1.20;99.90;;;;;;5085047;28;20036;-68
2022/01/08 02:58:29;;;;;;;17.30;9.70;;;1.20;99.90;;;;;;5066939;28;20581;-68
2022/01/08 03:00:59;;;;;;;17.73;9.57;;;1.40;99.90;;;;;;5068535;28;20055;-68
2022/01/08 03:03:24;;;;;;;21.35;10.95;;;1.10;99.90;;;;;;5081131;28;20051;-68
2022/01/08 03:05:50;;;;;;;17.38;9.65;;;1.10;99.90;;;;;;5070962;28;20655;-68
2022/01/08 03:08:16;;;;;;;22.42;10.95;;;1.10;99.90;;;;;;5081364;28;20518;-68
2022/01/08 03:10:42;;;;;;;21.08;11.23;;;1.10;99.90;;;;;;5087753;28;20036;-68
2022/01/08 03:13:08;;;;;;;16.13;9.93;;;1.00;99.90;;;;;;5084691;28;20334;-68
2022/01/08 03:15:36;;;;;;;16.52;8.85;;;1.00;99.90;;;;;;5082563;28;20043;-68
2022/01/08 03:18:07;;;;;;;18.42;10.20;;;1.00;99.90;;;;;;5069793;28;20085;-68
2022/01/08 03:20:35;;;;;;;19.92;10.05;;;1.00;99.90;;;;;;5085180;28;20048;-68
2022/01/08 03:23:04;;;;;;;18.88;9.95;;;0.90;99.90;;;;;;5076373;28;20036;-68
2022/01/08 03:25:30;;;;;;;16.80;9.43;;;0.90;99.90;;;;;;5072477;28;20082;-68
2022/01/08 03:27:57;;;;;;;14.73;8.63;;;0.90;99.90;;;;;;5087691;28;20064;-68
2022/01/08 03:30:24;;;;;;;15.43;10.23;;;0.90;99.90;;;;;;5089526;28;20032;-69
2022/01/08 03:32:51;;;;;;;17.02;10.35;;;0.90;99.90;;;;;;5069243;28;20345;-68
2022/01/08 03:35:17;;;;;;;17.88;9.57;;;0.90;99.90;;;;;;5080800;28;20050;-68
2022/01/08 03:37:43;;;;;;;18.95;9.70;;;0.80;99.90;;;;;;5082969;28;20032;-68
2022/01/08 03:40:09;;;;;;;20.08;10.02;;;0.90;99.90;;;;;;5080373;28;20028;-68
2022/01/08 03:42:34;;;;;;;18.17;10.05;;;0.90;99.90;;;;;;5088799;28;20400;-69
2022/01/08 03:45:00;;;;;;;18.63;9.15;;;0.90;99.90;;;;;;5086951;28;20089;-68
2022/01/08 03:49:53;;;;;;;19.42;10.20;;;0.90;99.90;;;;;;5092452;28;20047;-68
2022/01/08 03:52:19;;;;;;;18.15;11.15;;;0.80;99.90;;;;;;5091828;28;20443;-68
2022/01/08 03:54:45;;;;;;;17.23;8.63;;;0.80;99.90;;;;;;5074740;28;20047;-68
2022/01/08 03:57:11;;;;;;;17.67;9.43;;;0.90;99.90;;;;;;5088910;28;20395;-68
2022/01/08 03:59:37;;;;;;;19.30;10.07;;;0.80;99.90;;;;;;5083899;28;20056;-68
2022/01/08 04:02:03;;;;;;;16.00;8.40;;;0.80;99.90;;;;;;5088639;28;20726;-68
2022/01/08 04:04:29;;;;;;;18.65;9.80;;;0.70;99.90;;;;;;5071413;28;20035;-69
2022/01/08 04:06:54;;;;;;;17.23;8.38;;;0.80;99.90;;;;;;5092237;28;20439;-68
2022/01/08 04:09:20;;;;;;;13.98;7.50;;;0.80;99.90;;;;;;5088005;28;20089;-68
2022/01/08 04:11:46;;;;;;;15.60;8.70;;;0.80;99.90;;;;;;5094224;28;20448;-68
2022/01/08 04:14:13;;;;;;;15.43;7.18;;;0.80;99.90;;;;;;5088912;28;20043;-68
2022/01/08 04:16:43;;;;;;;18.65;8.90;;;0.80;99.90;;;;;;5068576;28;20038;-68
2022/01/08 04:19:09;;;;;;;13.35;6.78;;;0.80;99.90;;;;;;5084244;28;20128;-68
2022/01/08 04:21:59;;;;;;;10.40;6.25;;;0.80;99.90;;;;;;5086023;28;20446;-68
2022/01/08 04:24:20;;;;;;;9.85;5.78;;;0.90;99.90;;;;;;5084664;28;20039;-68
2022/01/08 04:26:46;;;;;;;14.85;6.93;;;0.90;99.90;;;;;;5074448;28;20502;-69
2022/01/08 04:29:12;;;;;;;11.93;7.25;;;0.90;99.90;;;;;;5086451;28;20327;-69
2022/01/08 04:31:37;;;;;;;11.23;6.30;;;0.80;99.90;;;;;;5089561;28;20449;-69
2022/01/08 04:34:03;;;;;;;13.50;5.70;;;0.90;99.90;;;;;;5089727;28;20040;-69
2022/01/08 04:36:29;;;;;;;10.55;5.20;;;0.90;99.90;;;;;;5090082;28;20035;-69
2022/01/08 04:38:55;;;;;;;11.43;5.18;;;0.90;99.90;;;;;;5087802;28;20036;-69
2022/01/08 04:41:20;;;;;;;10.00;5.18;;;0.90;99.90;;;;;;5087449;28;20039;-68
2022/01/08 04:43:46;;;;;;;8.23;4.97;;;1.00;99.90;;;;;;5086131;28;20064;-68
2022/01/08 04:46:12;;;;;;;15.05;5.72;;;1.00;99.90;;;;;;5087664;28;20398;-69
2022/01/08 04:48:38;;;;;;;13.23;5.60;;;1.00;99.90;;;;;;5102361;28;20066;-68
2022/01/08 04:51:04;;;;;;;14.23;5.35;;;1.80;99.90;;;;;;5086051;28;20043;-68
2022/01/08 04:53:30;;;;;;;10.52;4.00;;;0.90;99.90;;;;;;5088629;28;20031;-69
2022/01/08 04:55:55;;;;;;;12.75;4.60;;;1.20;99.90;;;;;;5089443;28;20495;-69
2022/01/08 04:58:21;;;;;;;11.55;4.30;;;1.00;99.90;;;;;;5089761;28;20142;-69
2022/01/08 05:00:47;;;;;;;14.32;4.53;;;1.00;99.90;;;;;;5092013;28;20066;-69
2022/01/08 05:03:12;;;;;;;9.55;3.92;;;1.10;99.90;;;;;;5081484;28;20051;-70
2022/01/08 05:05:38;;;;;;;12.52;5.07;;;1.00;99.90;;;;;;5080347;28;20388;-69
2022/01/08 05:08:04;;;;;;;11.52;4.63;;;1.00;99.90;;;;;;5084680;28;20039;-69
2022/01/08 05:10:33;;;;;;;13.75;5.57;;;1.00;99.90;;;;;;5082433;28;20043;-69
2022/01/08 05:13:04;;;;;;;11.40;5.65;;;1.20;99.90;;;;;;5104201;28;20080;-69
2022/01/08 05:15:31;;;;;;;10.48;5.35;;;1.00;99.90;;;;;;5078086;28;20392;-69
2022/01/08 05:17:56;;;;;;;11.90;5.97;;;1.10;99.90;;;;;;5079011;28;20043;-68
2022/01/08 05:20:22;;;;;;;11.75;6.20;;;1.00;99.90;;;;;;5090457;28;20407;-69
2022/01/08 05:25:20;;;;;;;17.33;7.85;;;1.00;99.90;;;;;;5081901;28;20540;-68
2022/01/08 05:27:46;;;;;;;14.50;7.15;;;1.00;99.90;;;;;;5083874;28;20032;-69
2022/01/08 05:30:14;;;;;;;24.92;7.50;;;1.00;99.90;;;;;;5086499;28;20058;-69
2022/01/08 05:32:40;;;;;;;13.95;6.82;;;1.00;99.90;;;;;;5086635;28;20323;-69
2022/01/08 05:35:06;;;;;;;18.50;7.63;;;1.00;99.90;;;;;;5071259;28;20047;-69
2022/01/08 05:37:32;;;;;;;16.67;7.78;;;1.00;99.90;;;;;;5089077;28;20481;-69
2022/01/08 05:39:57;;;;;;;16.60;7.32;;;1.10;99.90;;;;;;5084172;28;20047;-69
2022/01/08 05:42:23;;;;;;;19.50;9.57;;;1.00;99.90;;;;;;5067727;28;20046;-69
2022/01/08 05:44:49;;;;;;;19.88;8.57;;;1.00;99.90;;;;;;5086287;28;20080;-69
2022/01/08 05:47:15;;;;;;;16.00;8.10;;;1.00;99.90;;;;;;5084056;28;20040;-69
2022/01/08 05:49:41;;;;;;;15.90;8.07;;;1.00;99.90;;;;;;5088443;28;20092;-69
2022/01/08 05:52:07;;;;;;;19.77;8.32;;;1.00;99.90;;;;;;5086787;28;20574;-69
2022/01/08 05:54:34;;;;;;;16.10;7.80;;;0.90;99.90;;;;;;5090945;28;20067;-69
2022/01/08 05:57:00;;;;;;;14.25;7.90;;;0.90;99.90;;;;;;5053323;28;20048;-69
2022/01/08 05:59:27;;;;;;;19.52;8.15;;;1.20;99.90;;;;;;5089705;28;20043;-69
2022/01/08 06:01:53;;;;;;;18.85;8.05;;;1.10;99.90;;;;;;5088495;28;20093;-69
2022/01/08 06:04:19;;;;;;;18.67;7.95;;;0.90;99.90;;;;;;5064982;28;20027;-69
2022/01/08 06:06:45;;;;;;;14.68;9.15;;;0.90;99.90;;;;;;5087117;28;20032;-69
2022/01/08 06:09:11;;;;;;;19.20;7.72;;;1.80;99.90;;;;;;5089897;28;20522;-68
2022/01/08 06:11:37;;;;;;;18.58;7.65;;;0.90;99.90;;;;;;5091429;28;20133;-68
2022/01/08 06:14:04;;;;;;;17.20;7.85;;;0.80;99.90;;;;;;5051983;28;20044;-68
2022/01/08 06:16:34;;;;;;;14.20;6.45;;;0.90;99.90;;;;;;5087676;28;20036;-68
2022/01/08 06:19:05;;;;;;;14.45;7.15;;;0.90;99.90;;;;;;5084176;28;20036;-68
2022/01/08 06:21:31;;;;;;;16.65;6.72;;;0.90;99.90;;;;;;5073067;28;20101;-68
2022/01/08 06:23:58;;;;;;;15.50;7.07;;;1.00;99.90;;;;;;5085658;28;20039;-69
2022/01/08 06:26:24;;;;;;;17.55;7.03;;;0.90;99.90;;;;;;5086810;28;20043;-69
2022/01/08 06:28:51;;;;;;;14.88;7.30;;;2.50;99.90;;;;;;5100274;28;20039;-69
2022/01/08 06:31:22;;;;;;;17.55;8.48;;;1.00;99.90;;;;;;5090541;28;20477;-69
2022/01/08 06:33:47;;;;;;;15.32;7.05;;;1.00;99.90;;;;;;5090638;28;20075;-69
2022/01/08 06:36:14;;;;;;;15.45;6.60;;;0.90;99.90;;;;;;5089494;28;20494;-69
2022/01/08 06:38:40;;;;;;;15.70;6.28;;;0.60;99.90;;;;;;5087230;28;20317;-69
2022/01/08 06:41:06;;;;;;;14.02;6.10;;;0.80;99.90;;;;;;5069047;28;20048;-68
2022/01/08 06:43:31;;;;;;;17.67;7.70;;;0.80;99.90;;;;;;5067581;28;20039;-68
2022/01/08 06:45:57;;;;;;;16.95;7.32;;;1.00;99.90;;;;;;5086426;28;20410;-69
2022/01/08 06:48:23;;;;;;;22.20;7.47;;;0.80;99.90;;;;;;5088383;28;20111;-69
2022/01/08 06:50:49;;;;;;;15.00;7.88;;;0.80;99.90;;;;;;5090281;28;20571;-69
2022/01/08 06:53:15;;;;;;;16.80;8.40;;;0.80;99.90;;;;;;5068339;28;20802;-69
2022/01/08 06:55:40;;;;;;;20.10;7.78;;;0.90;99.90;;;;;;5091273;28;20123;-69
2022/01/08 06:58:06;;;;;;;16.65;7.28;;;0.80;99.90;;;;;;5085261;28;20047;-69
2022/01/08 07:00:32;;;;;;;12.52;6.53;;;0.80;99.90;;;;;;5089594;28;20049;-69
2022/01/08 07:02:59;;;;;;;18.92;6.85;;;0.80;99.90;;;;;;5087133;28;20043;-69
2022/01/08 07:05:25;;;;;;;17.50;7.25;;;0.70;99.90;;;;;;5089885;28;20085;-68
2022/01/08 07:07:51;;;;;;;13.75;6.30;;;0.80;99.90;;;;;;5088094;28;20039;-69
2022/01/08 07:10:16;;;;;;;12.77;6.75;;;0.70;99.90;;;;;;5073376;28;20329;-69
2022/01/08 07:12:42;;;;;;;14.52;6.88;;;0.60;99.90;;;;;;5088054;28;20039;-69
2022/01/08 07:15:08;;;;;;;14.10;6.22;;;0.60;99.90;;;;;;5086613;28;20039;-69
2022/01/08 07:17:34;;;;;;;15.88;6.72;;;0.60;99.90;;;;;;5070718;28;20374;-68
2022/01/08 07:19:59;;;;;;;14.63;6.35;;;0.80;99.90;;;;;;5087603;28;20426;-69
2022/01/08 07:22:25;;;;;;;15.50;6.82;;;1.00;99.90;;;;;;5084545;28;20038;-69
2022/01/08 07:24:51;;;;;;;10.55;5.97;;;0.60;99.90;;;;;;5087852;28;20035;-68
2022/01/08 07:27:17;;;;;;;13.38;6.57;;;0.70;99.90;;;;;;5086514;28;20039;-68
2022/01/08 07:29:42;;;;;;;17.83;7.05;;;0.60;99.90;;;;;;5086139;28;20286;-68
2022/01/08 07:32:08;;;;;;;13.38;6.28;;;0.60;99.90;;;;;;5067244;28;20384;-69
2022/01/08 07:34:34;;;;;;;16.73;6.50;;;0.60;99.90;;;;;;5072933;28;20040;-68
2022/01/08 07:36:59;;;;;;;13.90;6.93;;;0.60;99.90;;;;;;5073773;28;20047;-68
2022/01/08 07:39:25;;;;;;;17.10;6.90;;;0.60;99.90;;;;;;5065978;28;20047;-68
2022/01/08 07:41:51;;;;;;;16.52;6.78;;;0.60;99.90;;;;;;5082953;28;20042;-68
2022/01/08 07:44:16;;;;;;;19.95;6.80;;;0.70;99.90;;;;;;5087176;28;20043;-68
2022/01/08 07:46:42;;;;;;;15.43;6.78;;;0.80;99.90;;;;;;5073934;28;20051;-69
2022/01/08 07:49:09;;;;;;;18.15;7.05;;;0.80;99.90;;;;;;5073344;28;20122;-68
2022/01/08 07:51:35;;;;;;;17.20;6.95;;;0.70;99.90;;;;;;5077207;28;20043;-68
2022/01/08 07:54:01;;;;;;;12.05;5.65;;;0.80;99.90;;;;;;5087955;28;21195;-69
2022/01/08 07:56:26;;;;;;;17.35;7.65;;;0.70;99.90;;;;;;5078248;28;20462;-68
2022/01/08 07:58:52;;;;;;;15.23;6.07;;;0.70;99.90;;;;;;5090544;28;20103;-68
2022/01/08 08:01:18;;;;;;;15.60;5.75;;;0.60;99.90;;;;;;5085651;28;20035;-69
2022/01/08 08:03:43;;;;;;;13.02;5.88;;;0.70;99.90;;;;;;5087666;28;20112;-68
2022/01/08 08:06:10;;;;;;;17.40;7.28;;;0.90;99.90;;;;;;5085243;28;20042;-69
2022/01/08 08:08:36;;;;;;;19.08;6.43;;;1.10;99.90;;;;;;5085556;28;20040;-71
2022/01/08 08:11:02;;;;;;;15.38;6.40;;;0.80;99.90;;;;;;5087663;28;20046;-67
2022/01/08 08:13:28;;;;;;;15.85;5.85;;;0.80;99.90;;;;;;5095520;28;20122;-69
2022/01/08 08:15:54;;;;;;;12.80;6.55;;;0.90;99.90;;;;;;5097669;28;20181;-67
2022/01/08 08:18:19;;;;;;;13.90;6.55;;;1.10;99.90;;;;;;5088169;28;20707;-69
2022/01/08 08:20:45;;;;;;;12.98;6.20;;;1.00;99.90;;;;;;5089296;28;20674;-68
2022/01/08 08:23:11;;;;;;;14.05;6.00;;;0.80;99.90;;;;;;5088831;28;20399;-68
2022/01/08 08:25:37;;;;;;;11.05;6.05;;;1.00;99.90;;;;;;5065001;28;20036;-68
2022/01/08 08:28:04;;;;;;;14.00;4.85;;;1.50;99.90;;;;;;5084859;28;20447;-68
2022/01/08 08:30:30;;;;;;;10.85;5.60;;;0.90;99.90;;;;;;5083630;28;20044;-68
2022/01/08 08:32:56;;;;;;;14.68;6.28;;;1.10;99.90;;;;;;5069058;28;20043;-69
2022/01/08 08:35:22;;;;;;;17.05;6.35;;;1.00;99.90;;;;;;5075158;28;20039;-68
2022/01/08 08:37:48;;;;;;;10.40;5.65;;;1.00;99.90;;;;;;5073814;28;20164;-68
2022/01/08 08:40:14;;;;;;;11.93;5.65;;;1.20;99.90;;;;;;5090132;28;20047;-68
2022/01/08 08:42:41;;;;;;;13.75;5.88;;;1.10;99.90;;;;;;5086949;28;20043;-68
2022/01/08 08:45:07;;;;;;;16.48;6.60;;;1.20;99.90;;;;;;5087852;28;20032;-68
2022/01/08 08:47:33;;;;;;;10.10;4.97;;;1.30;99.90;;;;;;5094745;28;20046;-68
2022/01/08 08:49:59;;;;;;;12.50;5.53;;;1.60;99.90;;;;;;5090934;28;20047;-68
2022/01/08 08:52:25;;;;;;;10.98;5.50;;;1.60;99.90;;;;;;5080711;28;20055;-68
2022/01/08 08:54:51;;;;;;;13.50;4.95;;;1.60;99.90;;;;;;5089098;28;20047;-68
2022/01/08 08:57:17;;;;;;;12.20;4.55;;;1.60;99.90;;;;;;5081682;28;20040;-69
2022/01/08 08:59:43;;;;;;;13.30;5.13;;;1.70;99.90;;;;;;5071619;28;20118;-68
2022/01/08 09:02:09;;;;;;;16.48;6.43;;;1.40;99.90;;;;;;5083323;28;20051;-68
2022/01/08 09:04:36;;;;;;;13.18;4.55;;;1.60;99.90;;;;;;5081161;28;20357;-68
2022/01/08 09:07:03;;;;;;;11.15;4.43;;;;;;;;;;5071001;28;20047;-69
2022/01/08 09:09:29;;;;;;;14.90;4.88;;;;;;;;;;5084410;28;20040;-68
2022/01/08 09:11:55;;;;;;;10.68;4.20;;;;;;;;;;5084035;28;20381;-69
2022/01/08 09:14:21;;;;;;;16.65;6.38;;;1.50;99.90;;;;;;5087121;28;20441;-69
2022/01/08 09:16:59;;;;;;;7.32;4.50;;;;;;;;;;5083911;28;20467;-69
2022/01/08 09:19:26;;;;;;;10.95;4.55;;;;;;;;;;5086371;28;20492;-69
2022/01/08 09:21:52;;;;;;;14.38;4.60;;;;;;;;;;5085580;28;20065;-69
2022/01/08 09:24:19;;;;;;;12.00;5.43;;;1.80;99.90;;;;;;5065742;28;20082;-69
2022/01/08 09:26:45;;;;;;;12.98;5.53;;;2.10;99.90;;;;;;5082973;28;20339;-69
2022/01/08 09:29:11;;;;;;;13.57;4.40;;;2.00;99.90;;;;;;5084850;28;20118;-69
2022/01/08 09:31:38;;;;;;;11.23;4.60;;;2.10;99.90;;;;;;5087227;28;20134;-69
2022/01/08 09:34:04;;;;;;;15.00;5.13;;;;;;;;;;5087592;28;20040;-69
2022/01/08 09:36:31;;;;;;;11.75;4.45;;;2.00;99.90;;;;;;5085023;28;20126;-68
2022/01/08 09:38:57;;;;;;;17.90;5.30;;;2.10;99.90;;;;;;5078179;28;20050;-69
2022/01/08 09:41:23;;;;;;;14.38;4.78;;;2.10;99.90;;;;;;5081545;28;20557;-68
2022/01/08 09:43:49;;;;;;;13.20;5.72;;;2.10;99.90;;;;;;5085680;28;20161;-68
2022/01/08 09:46:15;;;;;;;11.23;4.80;;;2.20;99.90;;;;;;5089210;28;20073;-69
2022/01/08 09:48:45;;;;;;;12.77;4.47;;;2.30;99.90;;;;;;5072693;28;20084;-68
2022/01/08 09:51:11;;;;;;;12.55;5.28;;;2.00;99.90;;;;;;5081371;28;20067;-69
2022/01/08 09:53:37;;;;;;;16.15;5.30;;;2.30;99.90;;;;;;5089728;28;20048;-68
2022/01/08 09:56:06;;;;;;;12.98;5.40;;;2.30;99.90;;;;;;5074002;28;20052;-69
2022/01/08 09:58:32;;;;;;;11.65;5.18;;;2.20;99.90;;;;;;5074124;28;20463;-69
2022/01/08 10:00:58;;;;;;;14.00;5.05;;;2.30;99.90;;;;;;5085305;28;20043;-68
2022/01/08 10:03:27;;;;;;;11.27;4.78;;;2.30;99.90;;;;;;5087196;28;20067;-69
2022/01/08 10:05:56;;;;;;;15.25;4.68;;;2.30;99.90;;;;;;5085416;28;20391;-67
2022/01/08 10:08:30;;;;;;;13.68;4.97;;;2.30;99.90;;;;;;5086693;28;20032;-69
2022/01/08 10:11:01;;;;;;;14.88;5.03;;;2.40;99.90;;;;;;5084061;28;20050;-68
2022/01/08 10:13:35;;;;;;;12.85;5.13;;;2.40;99.90;;;;;;5092851;28;20101;-68
2022/01/08 10:18:46;;;;;;;14.82;5.05;;;2.40;99.90;;;;;;5076870;28;20048;-68
2022/01/08 10:21:21;;;;;;;13.75;4.50;;;2.50;99.90;;;;;;5072965;28;20085;-69
2022/01/08 10:23:50;;;;;;;13.07;5.63;;;2.50;99.90;;;;;;5081748;28;20044;-68
2022/01/08 10:26:21;;;;;;;10.40;6.28;;;2.50;99.90;;;;;;5073790;28;20127;-68
2022/01/08 10:28:56;;;;;;;11.82;5.50;;;2.50;99.90;;;;;;5082408;28;20039;-68
2022/01/08 10:31:28;;;;;;;12.85;5.63;;;2.50;99.90;;;;;;5090598;28;20047;-68
2022/01/08 10:34:02;;;;;;;;;;;2.50;99.90;;;;;;5090565;28;20043;-68
2022/01/08 10:36:33;;;;;;;10.25;5.75;;;2.50;99.90;;;;;;5077777;28;19919;-68
2022/01/08 10:39:03;;;;;;;16.30;6.40;;;3.20;99.90;;;;;;5074735;28;20047;-68
2022/01/08 10:41:29;;;;;;;11.90;6.38;;;2.60;99.90;;;;;;5085414;28;20058;-69
2022/01/08 10:44:17;;;;;;;12.07;6.93;;;2.60;99.90;;;;;;5087351;28;20332;-68
2022/01/08 10:47:05;;;;;;;10.98;6.32;;;2.60;99.90;;;;;;5086904;28;20044;-69
2022/01/08 10:49:35;;;;;;;15.90;6.90;;;2.60;99.90;;;;;;5096195;28;20047;-68
2022/01/08 10:52:05;;;;;;;13.45;7.35;;;2.70;99.90;;;;;;5089225;28;20124;-68
2022/01/08 10:54:41;;;;;;;13.02;7.32;;;2.70;99.90;;;;;;5089547;28;20114;-70
2022/01/08 10:57:09;;;;;;;12.15;6.63;;;2.70;99.90;;;;;;5090752;28;20044;-70
2022/01/08 10:59:36;;;;;;;14.18;7.65;;;2.70;99.90;;;;;;5085174;28;20055;-69
2022/01/08 11:02:06;;;;;;;16.13;8.02;;;2.80;99.90;;;;;;5090525;28;20035;-68
2022/01/08 11:04:43;;;;;;;10.73;6.18;;;2.80;99.90;;;;;;5071313;28;20576;-69
2022/01/08 11:07:20;;;;;;;18.38;8.02;;;2.80;99.90;;;;;;5081139;28;20119;-69
2022/01/08 11:09:48;;;;;;;14.95;7.22;;;2.80;99.90;;;;;;5088864;28;20100;-69
2022/01/08 11:12:26;;;;;;;12.52;7.65;;;2.80;99.90;;;;;;5090711;28;20039;-69
2022/01/08 11:17:22;;;;;;;14.63;7.28;;;2.90;99.90;;;;;;5086051;28;20062;-68
2022/01/08 11:19:56;;;;;;;14.38;7.40;;;2.80;99.90;;;;;;5081931;28;20106;-69
2022/01/08 11:22:25;;;;;;;17.70;10.43;;;2.80;99.90;;;;;;5076968;28;20043;-68
2022/01/08 11:25:04;;;;;;;18.75;9.25;;;2.90;99.90;;;;;;5086625;28;20031;-68
2022/01/08 11:27:37;;;;;;;15.57;8.27;;;2.90;99.90;;;;;;5090594;28;20092;-68
2022/01/08 11:30:20;;;;;;;13.90;7.57;;;2.90;99.90;;;;;;5089817;28;20068;-68
2022/01/08 11:32:50;;;;;;;17.38;8.68;;;3.00;99.90;;;;;;5091291;28;20044;-69
2022/01/08 11:35:17;;;;;;;14.27;8.77;;;3.10;99.90;;;;;;5076130;28;20090;-69
2022/01/08 11:37:48;;;;;;;14.80;8.80;;;3.10;99.90;;;;;;5075866;28;20039;-69
2022/01/08 11:40:17;;;;;;;14.75;8.55;;;3.10;99.90;;;;;;5075659;28;20087;-69
2022/01/08 11:42:44;;;;;;;11.40;7.43;;;3.10;99.90;;;;;;5107041;28;20035;-68
2022/01/08 11:45:15;;;;;;;13.52;7.53;;;3.20;99.90;;;;;;5090465;28;20056;-68
2022/01/08 11:47:47;;;;;;;14.82;7.50;;;3.20;99.90;;;;;;5081856;28;20385;-69
2022/01/08 11:50:18;;;;;;;12.57;7.18;;;3.20;99.90;;;;;;5082362;28;20043;-69
2022/01/08 11:52:44;;;;;;;18.20;8.25;;;4.00;99.90;;;;;;5070482;28;20046;-69
2022/01/08 11:55:10;;;;;;;15.63;8.38;;;3.30;99.90;;;;;;5070169;28;20088;-69
2022/01/08 11:57:35;;;;;;;12.38;8.63;;;3.30;99.90;;;;;;5088401;28;20057;-69
2022/01/08 12:00:03;;;;;;;14.13;7.53;;;3.30;99.90;;;;;;5084805;28;20110;-69
2022/01/08 12:02:41;;;;;;;14.32;8.23;;;3.30;99.90;;;;;;5067601;28;20036;-68
2022/01/08 12:05:11;;;;;;;14.50;8.50;;;3.50;99.90;;;;;;5081199;28;20071;-69
2022/01/08 12:07:44;;;;;;;15.25;7.65;;;3.40;99.90;;;;;;5070756;28;20484;-69
2022/01/08 12:10:31;;;;;;;6.90;4.30;;;3.40;99.90;;;;;;5066214;28;20082;-69
2022/01/08 12:13:02;;;;;;;11.75;6.80;;;3.40;99.90;;;;;;5064693;28;20044;-69
2022/01/08 12:15:40;;;;;;;12.02;5.80;;;3.50;99.90;;;;;;5083321;28;20079;-69
2022/01/08 12:18:11;;;;;;;13.55;6.80;;;3.50;99.90;;;;;;5080744;28;20048;-68
2022/01/08 12:20:52;;;;;;;18.30;6.55;;;3.50;99.90;;;;;;5088646;28;20044;-69
2022/01/08 12:23:31;;;;;;;14.68;8.02;;;3.40;99.90;;;;;;5067972;28;20047;-69
2022/01/08 12:26:03;;;;;;;15.95;8.65;;;3.50;99.90;;;;;;5067189;28;20048;-69
2022/01/08 12:28:59;;;;;;;18.67;9.57;;;3.50;99.90;;;;;;5070995;28;20032;-69
2022/01/08 12:31:42;;;;;;;12.63;7.43;;;3.50;99.90;;;;;;5080770;28;20327;-69
2022/01/08 12:34:26;;;;;;;18.90;10.07;;;3.40;99.90;;;;;;5083746;28;20036;-68
2022/01/08 12:36:55;;;;;;;18.20;10.02;;;3.40;99.90;;;;;;5085319;28;20118;-74
2022/01/08 12:39:48;;;;;;;15.05;8.95;;;3.40;99.90;;;;;;5073570;28;20044;-69
2022/01/08 12:42:20;;;;;;;17.30;10.93;;;3.50;99.90;;;;;;5070859;28;20052;-69
2022/01/08 12:45:18;;;;;;;21.25;10.60;;;3.50;99.90;;;;;;5082370;28;20075;-69
2022/01/08 12:48:05;;;;;;;15.63;8.50;;;3.50;99.90;;;;;;5089018;28;20056;-69
2022/01/08 12:50:34;;;;;;;23.15;13.77;;;3.50;99.90;;;;;;5096413;28;20037;-68
2022/01/08 12:53:06;;;;;;;15.05;8.77;;;3.50;99.90;;;;;;5082763;28;20036;-69
2022/01/08 12:55:43;;;;;;;16.48;10.63;;;3.50;99.90;;;;;;5084446;28;20048;-69
2022/01/08 12:58:30;;;;;;;20.88;12.63;;;4.20;99.90;;;;;;5082800;28;20043;-69
2022/01/08 13:00:59;;;;;;;16.23;9.15;;;3.50;99.90;;;;;;5073955;28;20059;-69
2022/01/08 13:03:26;;;;;;;17.08;12.38;;;3.60;99.90;;;;;;5082564;28;20127;-69
2022/01/08 13:05:52;;;;;;;14.65;8.55;;;3.50;99.90;;;;;;5083357;28;20062;-69
2022/01/08 13:08:30;;;;;;;21.10;12.32;;;3.50;99.90;;;;;;5083232;28;20035;-69
2022/01/08 13:11:00;;;;;;;20.95;13.80;;;3.50;99.90;;;;;;5082047;28;20430;-69
2022/01/08 13:13:27;;;;;;;18.63;11.13;;;3.60;99.90;;;;;;5073761;28;20063;-69
2022/01/08 13:15:54;;;;;;;20.60;12.40;;;3.50;99.90;;;;;;5084287;28;20055;-69
2022/01/08 13:18:24;;;;;;;17.02;10.25;;;3.50;99.90;;;;;;5083993;28;20040;-69
2022/01/08 13:21:04;;;;;;;27.95;15.68;;;3.40;99.90;;;;;;5070562;28;20059;-69
2022/01/08 13:23:31;;;;;;;24.00;14.13;;;3.40;99.90;;;;;;5068491;28;20056;-69